sensor_id;sensor_type;location;lat;lon;timestamp;P1;durP1;ratioP1;P2;durP2;ratioP2
27921;SDS011;15261;50.356;10.340;2023-07-22T00:01:20;7.32;;;3.70;;
27921;SDS011;15261;50.356;10.340;2023-07-22T00:06:52;3.60;;;3.28;;
27921;SDS011;15261;50.356;10.340;2023-07-22T00:09:18;6.50;;;3.42;;
27921;SDS011;15261;50.356;10.340;2023-07-22T00:11:44;4.72;;;3.50;;
27921;SDS011;15261;50.356;10.340;2023-07-22T00:14:09;4.90;;;3.80;;
27921;SDS011;15261;50.356;10.340;2023-07-22T00:16:35;5.22;;;3.30;;
27921;SDS011;15261;50.356;10.340;2023-07-22T00:19:00;6.10;;;3.90;;
27921;SDS011;15261;50.356;10.340;2023-07-22T00:21:27;7.90;;;3.78;;
27921;SDS011;15261;50.356;10.340;2023-07-22T00:23:54;9.40;;;3.75;;
27921;SDS011;15261;50.356;10.340;2023-07-22T00:26:19;8.35;;;3.90;;
27921;SDS011;15261;50.356;10.340;2023-07-22T00:28:45;14.85;;;4.18;;
27921;SDS011;15261;50.356;10.340;2023-07-22T00:31:10;8.57;;;4.10;;
27921;SDS011;15261;50.356;10.340;2023-07-22T00:33:36;12.93;;;4.13;;
27921;SDS011;15261;50.356;10.340;2023-07-22T00:36:02;9.02;;;3.85;;
27921;SDS011;15261;50.356;10.340;2023-07-22T00:38:28;7.25;;;4.05;;
27921;SDS011;15261;50.356;10.340;2023-07-22T00:40:53;10.48;;;4.00;;
27921;SDS011;15261;50.356;10.340;2023-07-22T00:43:19;14.27;;;4.00;;
27921;SDS011;15261;50.356;10.340;2023-07-22T00:45:44;10.38;;;4.45;;
27921;SDS011;15261;50.356;10.340;2023-07-22T00:48:10;5.90;;;4.07;;
27921;SDS011;15261;50.356;10.340;2023-07-22T00:50:38;8.35;;;4.10;;
27921;SDS011;15261;50.356;10.340;2023-07-22T00:53:04;7.50;;;4.05;;
27921;SDS011;15261;50.356;10.340;2023-07-22T00:55:29;9.35;;;3.95;;
27921;SDS011;15261;50.356;10.340;2023-07-22T00:57:58;8.10;;;4.25;;
27921;SDS011;15261;50.356;10.340;2023-07-22T01:16:05;4.35;;;3.95;;
27921;SDS011;15261;50.356;10.340;2023-07-22T01:18:32;8.52;;;4.18;;
27921;SDS011;15261;50.356;10.340;2023-07-22T01:20:58;8.15;;;4.10;;
27921;SDS011;15261;50.356;10.340;2023-07-22T01:26:46;11.80;;;4.22;;
27921;SDS011;15261;50.356;10.340;2023-07-22T01:29:12;10.02;;;4.10;;
27921;SDS011;15261;50.356;10.340;2023-07-22T01:31:38;8.23;;;4.20;;
27921;SDS011;15261;50.356;10.340;2023-07-22T01:34:04;14.25;;;3.97;;
27921;SDS011;15261;50.356;10.340;2023-07-22T01:36:30;12.77;;;4.63;;
27921;SDS011;15261;50.356;10.340;2023-07-22T01:38:55;11.65;;;4.40;;
27921;SDS011;15261;50.356;10.340;2023-07-22T01:41:21;9.23;;;4.25;;
27921;SDS011;15261;50.356;10.340;2023-07-22T01:43:46;10.50;;;4.57;;
27921;SDS011;15261;50.356;10.340;2023-07-22T01:46:12;14.25;;;4.00;;
27921;SDS011;15261;50.356;10.340;2023-07-22T01:48:37;7.75;;;4.50;;
27921;SDS011;15261;50.356;10.340;2023-07-22T01:51:03;8.50;;;4.57;;
27921;SDS011;15261;50.356;10.340;2023-07-22T01:53:30;8.10;;;4.50;;
27921;SDS011;15261;50.356;10.340;2023-07-22T01:55:55;6.25;;;4.20;;
27921;SDS011;15261;50.356;10.340;2023-07-22T01:58:21;6.18;;;4.03;;
27921;SDS011;15261;50.356;10.340;2023-07-22T02:00:50;7.13;;;4.25;;
27921;SDS011;15261;50.356;10.340;2023-07-22T02:05:46;6.05;;;3.90;;
27921;SDS011;15261;50.356;10.340;2023-07-22T02:08:12;7.93;;;4.45;;
27921;SDS011;15261;50.356;10.340;2023-07-22T02:10:37;12.75;;;4.22;;
27921;SDS011;15261;50.356;10.340;2023-07-22T02:13:03;13.63;;;4.40;;
27921;SDS011;15261;50.356;10.340;2023-07-22T02:15:29;7.80;;;3.80;;
27921;SDS011;15261;50.356;10.340;2023-07-22T02:17:55;11.65;;;4.50;;
27921;SDS011;15261;50.356;10.340;2023-07-22T02:20:21;11.27;;;4.88;;
27921;SDS011;15261;50.356;10.340;2023-07-22T02:22:47;10.48;;;4.93;;
27921;SDS011;15261;50.356;10.340;2023-07-22T02:25:13;17.23;;;4.50;;
27921;SDS011;15261;50.356;10.340;2023-07-22T02:27:39;10.60;;;5.55;;
27921;SDS011;15261;50.356;10.340;2023-07-22T02:30:06;11.07;;;5.40;;
27921;SDS011;15261;50.356;10.340;2023-07-22T02:32:35;11.10;;;4.95;;
27921;SDS011;15261;50.356;10.340;2023-07-22T02:35:05;18.08;;;5.05;;
27921;SDS011;15261;50.356;10.340;2023-07-22T02:37:36;16.25;;;4.65;;
27921;SDS011;15261;50.356;10.340;2023-07-22T02:40:03;12.02;;;4.30;;
27921;SDS011;15261;50.356;10.340;2023-07-22T02:42:38;10.75;;;4.53;;
27921;SDS011;15261;50.356;10.340;2023-07-22T02:45:04;8.43;;;4.60;;
27921;SDS011;15261;50.356;10.340;2023-07-22T02:47:32;10.93;;;4.80;;
27921;SDS011;15261;50.356;10.340;2023-07-22T02:49:58;11.65;;;5.13;;
27921;SDS011;15261;50.356;10.340;2023-07-22T02:52:24;8.73;;;5.40;;
27921;SDS011;15261;50.356;10.340;2023-07-22T02:57:45;13.10;;;5.60;;
27921;SDS011;15261;50.356;10.340;2023-07-22T03:00:12;9.60;;;5.25;;
27921;SDS011;15261;50.356;10.340;2023-07-22T03:02:41;11.50;;;5.40;;
27921;SDS011;15261;50.356;10.340;2023-07-22T03:05:07;11.85;;;5.75;;
27921;SDS011;15261;50.356;10.340;2023-07-22T03:07:34;10.60;;;5.75;;
27921;SDS011;15261;50.356;10.340;2023-07-22T03:10:00;11.88;;;6.05;;
27921;SDS011;15261;50.356;10.340;2023-07-22T03:12:25;8.48;;;6.35;;
27921;SDS011;15261;50.356;10.340;2023-07-22T03:14:52;7.05;;;6.10;;
27921;SDS011;15261;50.356;10.340;2023-07-22T03:17:18;8.20;;;6.20;;
27921;SDS011;15261;50.356;10.340;2023-07-22T03:19:44;10.23;;;5.93;;
27921;SDS011;15261;50.356;10.340;2023-07-22T03:22:10;8.30;;;5.78;;
27921;SDS011;15261;50.356;10.340;2023-07-22T03:24:38;8.05;;;5.88;;
27921;SDS011;15261;50.356;10.340;2023-07-22T03:27:04;9.38;;;5.38;;
27921;SDS011;15261;50.356;10.340;2023-07-22T03:29:31;7.97;;;5.20;;
27921;SDS011;15261;50.356;10.340;2023-07-22T03:31:57;9.50;;;5.20;;
27921;SDS011;15261;50.356;10.340;2023-07-22T03:34:23;17.10;;;5.93;;
27921;SDS011;15261;50.356;10.340;2023-07-22T03:36:48;9.75;;;5.20;;
27921;SDS011;15261;50.356;10.340;2023-07-22T03:39:14;9.50;;;5.10;;
27921;SDS011;15261;50.356;10.340;2023-07-22T03:41:40;7.13;;;5.68;;
27921;SDS011;15261;50.356;10.340;2023-07-22T03:44:05;8.40;;;5.68;;
27921;SDS011;15261;50.356;10.340;2023-07-22T03:46:31;11.55;;;5.50;;
27921;SDS011;15261;50.356;10.340;2023-07-22T03:48:56;9.20;;;6.07;;
27921;SDS011;15261;50.356;10.340;2023-07-22T03:51:22;7.90;;;6.47;;
27921;SDS011;15261;50.356;10.340;2023-07-22T03:53:47;12.95;;;5.85;;
27921;SDS011;15261;50.356;10.340;2023-07-22T03:56:13;8.38;;;5.85;;
27921;SDS011;15261;50.356;10.340;2023-07-22T04:02:01;12.10;;;5.97;;
27921;SDS011;15261;50.356;10.340;2023-07-22T04:04:27;10.40;;;6.07;;
27921;SDS011;15261;50.356;10.340;2023-07-22T04:06:52;8.38;;;5.78;;
27921;SDS011;15261;50.356;10.340;2023-07-22T04:09:18;11.77;;;6.60;;
27921;SDS011;15261;50.356;10.340;2023-07-22T04:11:43;8.65;;;6.57;;
27921;SDS011;15261;50.356;10.340;2023-07-22T04:14:09;9.55;;;5.85;;
27921;SDS011;15261;50.356;10.340;2023-07-22T04:16:34;6.68;;;5.93;;
27921;SDS011;15261;50.356;10.340;2023-07-22T04:19:00;10.23;;;5.95;;
27921;SDS011;15261;50.356;10.340;2023-07-22T04:21:26;10.10;;;6.82;;
27921;SDS011;15261;50.356;10.340;2023-07-22T04:23:51;12.02;;;6.25;;
27921;SDS011;15261;50.356;10.340;2023-07-22T04:26:18;10.07;;;5.88;;
27921;SDS011;15261;50.356;10.340;2023-07-22T04:28:44;11.98;;;6.25;;
27921;SDS011;15261;50.356;10.340;2023-07-22T04:31:09;9.63;;;7.13;;
27921;SDS011;15261;50.356;10.340;2023-07-22T04:33:35;7.30;;;6.60;;
27921;SDS011;15261;50.356;10.340;2023-07-22T04:36:00;11.48;;;6.93;;
27921;SDS011;15261;50.356;10.340;2023-07-22T04:38:26;10.20;;;7.30;;
27921;SDS011;15261;50.356;10.340;2023-07-22T04:40:52;10.57;;;6.70;;
27921;SDS011;15261;50.356;10.340;2023-07-22T04:43:17;12.07;;;7.20;;
27921;SDS011;15261;50.356;10.340;2023-07-22T04:45:46;10.10;;;6.35;;
27921;SDS011;15261;50.356;10.340;2023-07-22T04:48:13;9.43;;;6.75;;
27921;SDS011;15261;50.356;10.340;2023-07-22T04:50:44;8.52;;;6.30;;
27921;SDS011;15261;50.356;10.340;2023-07-22T04:53:10;10.05;;;7.03;;
27921;SDS011;15261;50.356;10.340;2023-07-22T04:55:38;6.85;;;6.15;;
27921;SDS011;15261;50.356;10.340;2023-07-22T04:58:04;10.82;;;5.70;;
27921;SDS011;15261;50.356;10.340;2023-07-22T05:00:30;10.43;;;6.50;;
27921;SDS011;15261;50.356;10.340;2023-07-22T05:02:55;9.02;;;6.20;;
27921;SDS011;15261;50.356;10.340;2023-07-22T05:05:21;8.50;;;6.07;;
27921;SDS011;15261;50.356;10.340;2023-07-22T05:07:47;6.03;;;5.40;;
27921;SDS011;15261;50.356;10.340;2023-07-22T05:10:14;10.88;;;5.93;;
27921;SDS011;15261;50.356;10.340;2023-07-22T05:12:40;6.65;;;5.70;;
27921;SDS011;15261;50.356;10.340;2023-07-22T05:15:08;9.48;;;6.10;;
27921;SDS011;15261;50.356;10.340;2023-07-22T05:17:44;11.68;;;6.40;;
27921;SDS011;15261;50.356;10.340;2023-07-22T05:20:10;7.75;;;6.25;;
27921;SDS011;15261;50.356;10.340;2023-07-22T05:22:36;9.73;;;6.18;;
27921;SDS011;15261;50.356;10.340;2023-07-22T05:25:20;10.20;;;6.80;;
27921;SDS011;15261;50.356;10.340;2023-07-22T05:27:45;8.45;;;6.78;;
27921;SDS011;15261;50.356;10.340;2023-07-22T05:30:11;7.88;;;7.07;;
27921;SDS011;15261;50.356;10.340;2023-07-22T05:32:36;8.23;;;6.97;;
27921;SDS011;15261;50.356;10.340;2023-07-22T05:35:02;7.03;;;6.22;;
27921;SDS011;15261;50.356;10.340;2023-07-22T05:37:30;8.65;;;7.07;;
27921;SDS011;15261;50.356;10.340;2023-07-22T05:39:56;11.30;;;7.25;;
27921;SDS011;15261;50.356;10.340;2023-07-22T05:42:21;13.95;;;7.55;;
27921;SDS011;15261;50.356;10.340;2023-07-22T05:44:47;7.75;;;6.97;;
27921;SDS011;15261;50.356;10.340;2023-07-22T05:47:13;9.80;;;7.15;;
27921;SDS011;15261;50.356;10.340;2023-07-22T05:49:41;8.05;;;7.00;;
27921;SDS011;15261;50.356;10.340;2023-07-22T05:52:07;9.55;;;7.30;;
27921;SDS011;15261;50.356;10.340;2023-07-22T05:54:32;9.00;;;6.88;;
27921;SDS011;15261;50.356;10.340;2023-07-22T05:56:58;11.85;;;7.63;;
27921;SDS011;15261;50.356;10.340;2023-07-22T05:59:23;8.25;;;7.32;;
27921;SDS011;15261;50.356;10.340;2023-07-22T06:01:50;9.05;;;7.35;;
27921;SDS011;15261;50.356;10.340;2023-07-22T06:04:16;8.23;;;7.05;;
27921;SDS011;15261;50.356;10.340;2023-07-22T06:06:41;8.27;;;7.40;;
27921;SDS011;15261;50.356;10.340;2023-07-22T06:09:07;11.23;;;7.20;;
27921;SDS011;15261;50.356;10.340;2023-07-22T06:11:32;7.93;;;6.88;;
27921;SDS011;15261;50.356;10.340;2023-07-22T06:13:58;8.95;;;7.53;;
27921;SDS011;15261;50.356;10.340;2023-07-22T06:16:23;9.02;;;7.15;;
27921;SDS011;15261;50.356;10.340;2023-07-22T06:18:49;8.27;;;6.97;;
27921;SDS011;15261;50.356;10.340;2023-07-22T06:21:32;9.70;;;6.95;;
27921;SDS011;15261;50.356;10.340;2023-07-22T06:23:57;10.02;;;7.50;;
27921;SDS011;15261;50.356;10.340;2023-07-22T06:26:23;8.48;;;7.35;;
27921;SDS011;15261;50.356;10.340;2023-07-22T06:28:48;9.90;;;7.38;;
27921;SDS011;15261;50.356;10.340;2023-07-22T06:31:14;9.32;;;7.25;;
27921;SDS011;15261;50.356;10.340;2023-07-22T06:33:39;7.85;;;6.68;;
27921;SDS011;15261;50.356;10.340;2023-07-22T06:36:05;9.20;;;7.38;;
27921;SDS011;15261;50.356;10.340;2023-07-22T06:38:30;8.55;;;6.93;;
27921;SDS011;15261;50.356;10.340;2023-07-22T06:40:56;10.90;;;6.60;;
27921;SDS011;15261;50.356;10.340;2023-07-22T06:43:22;10.43;;;6.80;;
27921;SDS011;15261;50.356;10.340;2023-07-22T06:45:48;11.63;;;6.22;;
27921;SDS011;15261;50.356;10.340;2023-07-22T06:48:13;7.40;;;6.25;;
27921;SDS011;15261;50.356;10.340;2023-07-22T06:50:39;9.45;;;6.75;;
27921;SDS011;15261;50.356;10.340;2023-07-22T06:53:04;14.80;;;6.90;;
27921;SDS011;15261;50.356;10.340;2023-07-22T06:55:30;10.13;;;6.10;;
27921;SDS011;15261;50.356;10.340;2023-07-22T06:57:56;9.63;;;6.63;;
27921;SDS011;15261;50.356;10.340;2023-07-22T07:00:22;7.38;;;6.53;;
27921;SDS011;15261;50.356;10.340;2023-07-22T07:02:47;8.65;;;6.50;;
27921;SDS011;15261;50.356;10.340;2023-07-22T07:05:13;8.15;;;7.00;;
27921;SDS011;15261;50.356;10.340;2023-07-22T07:07:38;11.23;;;6.28;;
27921;SDS011;15261;50.356;10.340;2023-07-22T07:10:06;11.77;;;6.70;;
27921;SDS011;15261;50.356;10.340;2023-07-22T07:12:33;7.22;;;6.05;;
27921;SDS011;15261;50.356;10.340;2023-07-22T07:14:58;8.13;;;6.18;;
27921;SDS011;15261;50.356;10.340;2023-07-22T07:17:24;8.57;;;6.00;;
27921;SDS011;15261;50.356;10.340;2023-07-22T07:19:50;7.63;;;6.00;;
27921;SDS011;15261;50.356;10.340;2023-07-22T07:22:15;7.03;;;6.38;;
27921;SDS011;15261;50.356;10.340;2023-07-22T07:24:43;7.63;;;6.00;;
27921;SDS011;15261;50.356;10.340;2023-07-22T07:27:09;8.68;;;6.47;;
27921;SDS011;15261;50.356;10.340;2023-07-22T07:29:34;10.85;;;6.93;;
27921;SDS011;15261;50.356;10.340;2023-07-22T07:32:00;7.50;;;6.63;;
27921;SDS011;15261;50.356;10.340;2023-07-22T07:34:25;8.45;;;6.35;;
27921;SDS011;15261;50.356;10.340;2023-07-22T07:36:51;9.55;;;7.55;;
27921;SDS011;15261;50.356;10.340;2023-07-22T07:39:16;7.85;;;6.65;;
27921;SDS011;15261;50.356;10.340;2023-07-22T07:41:42;8.07;;;7.28;;
27921;SDS011;15261;50.356;10.340;2023-07-22T07:44:07;10.32;;;7.38;;
27921;SDS011;15261;50.356;10.340;2023-07-22T07:46:33;8.95;;;6.45;;
27921;SDS011;15261;50.356;10.340;2023-07-22T07:49:00;10.35;;;6.47;;
27921;SDS011;15261;50.356;10.340;2023-07-22T07:51:26;7.60;;;6.32;;
27921;SDS011;15261;50.356;10.340;2023-07-22T07:53:53;8.52;;;6.03;;
27921;SDS011;15261;50.356;10.340;2023-07-22T07:56:20;7.43;;;5.80;;
27921;SDS011;15261;50.356;10.340;2023-07-22T07:58:46;6.47;;;5.88;;
27921;SDS011;15261;50.356;10.340;2023-07-22T08:01:12;7.05;;;6.35;;
27921;SDS011;15261;50.356;10.340;2023-07-22T08:07:03;10.15;;;6.97;;
27921;SDS011;15261;50.356;10.340;2023-07-22T08:09:30;7.03;;;6.40;;
27921;SDS011;15261;50.356;10.340;2023-07-22T08:11:56;8.25;;;7.07;;
27921;SDS011;15261;50.356;10.340;2023-07-22T08:14:22;7.70;;;6.53;;
27921;SDS011;15261;50.356;10.340;2023-07-22T08:16:48;8.07;;;6.47;;
27921;SDS011;15261;50.356;10.340;2023-07-22T08:22:02;9.32;;;5.68;;
27921;SDS011;15261;50.356;10.340;2023-07-22T08:24:27;5.60;;;5.10;;
27921;SDS011;15261;50.356;10.340;2023-07-22T08:26:53;6.82;;;5.20;;
27921;SDS011;15261;50.356;10.340;2023-07-22T08:29:18;6.28;;;5.28;;
27921;SDS011;15261;50.356;10.340;2023-07-22T08:31:44;9.65;;;5.10;;
27921;SDS011;15261;50.356;10.340;2023-07-22T08:34:10;5.28;;;4.80;;
27921;SDS011;15261;50.356;10.340;2023-07-22T08:39:26;9.20;;;4.78;;
27921;SDS011;15261;50.356;10.340;2023-07-22T08:41:51;5.72;;;5.10;;
27921;SDS011;15261;50.356;10.340;2023-07-22T08:44:19;5.32;;;4.82;;
27921;SDS011;15261;50.356;10.340;2023-07-22T08:46:46;5.30;;;4.80;;
27921;SDS011;15261;50.356;10.340;2023-07-22T08:49:12;4.68;;;4.20;;
27921;SDS011;15261;50.356;10.340;2023-07-22T08:51:38;4.93;;;4.50;;
27921;SDS011;15261;50.356;10.340;2023-07-22T08:54:04;8.48;;;4.50;;
27921;SDS011;15261;50.356;10.340;2023-07-22T08:56:31;6.75;;;4.63;;
27921;SDS011;15261;50.356;10.340;2023-07-22T09:01:37;5.07;;;4.45;;
27921;SDS011;15261;50.356;10.340;2023-07-22T09:04:04;6.85;;;4.82;;
27921;SDS011;15261;50.356;10.340;2023-07-22T09:06:34;4.90;;;4.50;;
27921;SDS011;15261;50.356;10.340;2023-07-22T09:09:01;7.80;;;4.60;;
27921;SDS011;15261;50.356;10.340;2023-07-22T09:11:32;5.22;;;4.82;;
27921;SDS011;15261;50.356;10.340;2023-07-22T09:13:59;6.35;;;5.03;;
27921;SDS011;15261;50.356;10.340;2023-07-22T09:16:26;6.13;;;4.63;;
27921;SDS011;15261;50.356;10.340;2023-07-22T09:18:54;4.90;;;4.30;;
27921;SDS011;15261;50.356;10.340;2023-07-22T09:21:21;4.57;;;4.15;;
27921;SDS011;15261;50.356;10.340;2023-07-22T09:23:48;6.40;;;4.55;;
27921;SDS011;15261;50.356;10.340;2023-07-22T09:26:17;4.82;;;4.38;;
27921;SDS011;15261;50.356;10.340;2023-07-22T09:28:59;7.70;;;4.47;;
27921;SDS011;15261;50.356;10.340;2023-07-22T09:31:26;4.65;;;4.18;;
27921;SDS011;15261;50.356;10.340;2023-07-22T09:33:53;5.30;;;4.22;;
27921;SDS011;15261;50.356;10.340;2023-07-22T09:36:19;4.32;;;4.03;;
27921;SDS011;15261;50.356;10.340;2023-07-22T09:38:45;4.88;;;4.40;;
27921;SDS011;15261;50.356;10.340;2023-07-22T09:41:24;6.57;;;4.20;;
27921;SDS011;15261;50.356;10.340;2023-07-22T09:43:53;4.45;;;4.15;;
27921;SDS011;15261;50.356;10.340;2023-07-22T09:46:19;5.70;;;4.40;;
27921;SDS011;15261;50.356;10.340;2023-07-22T09:48:45;6.18;;;4.22;;
27921;SDS011;15261;50.356;10.340;2023-07-22T09:51:11;4.93;;;4.03;;
27921;SDS011;15261;50.356;10.340;2023-07-22T09:53:43;4.90;;;4.40;;
27921;SDS011;15261;50.356;10.340;2023-07-22T09:56:09;4.68;;;3.97;;
27921;SDS011;15261;50.356;10.340;2023-07-22T09:58:35;7.85;;;4.47;;
27921;SDS011;15261;50.356;10.340;2023-07-22T10:03:58;5.07;;;4.20;;
27921;SDS011;15261;50.356;10.340;2023-07-22T10:09:03;7.68;;;4.32;;
27921;SDS011;15261;50.356;10.340;2023-07-22T10:11:35;5.63;;;4.20;;
27921;SDS011;15261;50.356;10.340;2023-07-22T10:14:04;6.50;;;4.07;;
27921;SDS011;15261;50.356;10.340;2023-07-22T10:16:30;8.77;;;4.20;;
27921;SDS011;15261;50.356;10.340;2023-07-22T10:18:58;10.55;;;4.25;;
27921;SDS011;15261;50.356;10.340;2023-07-22T10:21:24;4.45;;;3.72;;
27921;SDS011;15261;50.356;10.340;2023-07-22T10:23:50;5.03;;;4.25;;
27921;SDS011;15261;50.356;10.340;2023-07-22T10:26:17;8.00;;;3.90;;
27921;SDS011;15261;50.356;10.340;2023-07-22T10:31:35;12.73;;;3.92;;
27921;SDS011;15261;50.356;10.340;2023-07-22T10:34:00;8.00;;;3.92;;
27921;SDS011;15261;50.356;10.340;2023-07-22T10:36:28;12.52;;;4.03;;
27921;SDS011;15261;50.356;10.340;2023-07-22T10:38:56;4.07;;;3.78;;
27921;SDS011;15261;50.356;10.340;2023-07-22T10:41:22;4.10;;;3.60;;
27921;SDS011;15261;50.356;10.340;2023-07-22T10:43:54;5.25;;;3.72;;
27921;SDS011;15261;50.356;10.340;2023-07-22T10:46:34;11.05;;;4.20;;
27921;SDS011;15261;50.356;10.340;2023-07-22T10:49:09;5.22;;;4.18;;
27921;SDS011;15261;50.356;10.340;2023-07-22T10:51:38;5.20;;;3.50;;
27921;SDS011;15261;50.356;10.340;2023-07-22T10:54:14;5.10;;;3.47;;
27921;SDS011;15261;50.356;10.340;2023-07-22T10:56:55;3.75;;;3.38;;
27921;SDS011;15261;50.356;10.340;2023-07-22T10:59:25;5.13;;;3.90;;
27921;SDS011;15261;50.356;10.340;2023-07-22T11:04:32;6.78;;;3.75;;
27921;SDS011;15261;50.356;10.340;2023-07-22T11:06:59;4.13;;;3.70;;
27921;SDS011;15261;50.356;10.340;2023-07-22T11:11:58;5.60;;;3.35;;
27921;SDS011;15261;50.356;10.340;2023-07-22T11:14:26;6.85;;;3.80;;
27921;SDS011;15261;50.356;10.340;2023-07-22T11:16:53;8.25;;;3.65;;
27921;SDS011;15261;50.356;10.340;2023-07-22T11:19:22;3.78;;;3.38;;
27921;SDS011;15261;50.356;10.340;2023-07-22T11:21:49;7.65;;;3.88;;
27921;SDS011;15261;50.356;10.340;2023-07-22T11:24:15;4.60;;;3.65;;
27921;SDS011;15261;50.356;10.340;2023-07-22T11:26:41;5.35;;;3.83;;
27921;SDS011;15261;50.356;10.340;2023-07-22T11:29:07;4.95;;;3.88;;
27921;SDS011;15261;50.356;10.340;2023-07-22T11:31:46;4.72;;;3.63;;
27921;SDS011;15261;50.356;10.340;2023-07-22T11:34:13;8.48;;;4.05;;
27921;SDS011;15261;50.356;10.340;2023-07-22T11:36:43;4.40;;;3.50;;
27921;SDS011;15261;50.356;10.340;2023-07-22T11:39:10;5.82;;;5.22;;
27921;SDS011;15261;50.356;10.340;2023-07-22T11:41:50;7.65;;;6.22;;
27921;SDS011;15261;50.356;10.340;2023-07-22T11:44:17;5.78;;;4.22;;
27921;SDS011;15261;50.356;10.340;2023-07-22T11:49:26;6.10;;;3.92;;
27921;SDS011;15261;50.356;10.340;2023-07-22T11:51:57;8.38;;;4.00;;
27921;SDS011;15261;50.356;10.340;2023-07-22T11:54:42;8.35;;;3.72;;
27921;SDS011;15261;50.356;10.340;2023-07-22T11:57:16;4.15;;;3.58;;
27921;SDS011;15261;50.356;10.340;2023-07-22T11:59:45;5.60;;;3.70;;
27921;SDS011;15261;50.356;10.340;2023-07-22T12:02:15;4.00;;;3.42;;
27921;SDS011;15261;50.356;10.340;2023-07-22T12:04:56;3.65;;;3.35;;
27921;SDS011;15261;50.356;10.340;2023-07-22T12:09:53;4.03;;;3.72;;
27921;SDS011;15261;50.356;10.340;2023-07-22T12:12:19;4.30;;;4.00;;
27921;SDS011;15261;50.356;10.340;2023-07-22T12:14:45;4.88;;;4.10;;
27921;SDS011;15261;50.356;10.340;2023-07-22T12:17:11;4.68;;;4.00;;
27921;SDS011;15261;50.356;10.340;2023-07-22T12:19:36;4.55;;;3.70;;
27921;SDS011;15261;50.356;10.340;2023-07-22T12:22:03;4.28;;;3.40;;
27921;SDS011;15261;50.356;10.340;2023-07-22T12:24:29;4.38;;;3.60;;
27921;SDS011;15261;50.356;10.340;2023-07-22T12:26:55;4.07;;;3.45;;
27921;SDS011;15261;50.356;10.340;2023-07-22T12:29:20;4.13;;;3.45;;
27921;SDS011;15261;50.356;10.340;2023-07-22T12:31:47;4.38;;;3.35;;
27921;SDS011;15261;50.356;10.340;2023-07-22T12:34:12;3.88;;;3.58;;
27921;SDS011;15261;50.356;10.340;2023-07-22T12:36:39;5.68;;;3.35;;
27921;SDS011;15261;50.356;10.340;2023-07-22T12:39:05;4.43;;;3.13;;
27921;SDS011;15261;50.356;10.340;2023-07-22T12:41:31;4.15;;;3.75;;
27921;SDS011;15261;50.356;10.340;2023-07-22T12:44:04;4.65;;;3.50;;
27921;SDS011;15261;50.356;10.340;2023-07-22T12:46:30;6.07;;;3.30;;
27921;SDS011;15261;50.356;10.340;2023-07-22T12:48:59;3.75;;;3.10;;
27921;SDS011;15261;50.356;10.340;2023-07-22T13:00:11;4.00;;;3.28;;
27921;SDS011;15261;50.356;10.340;2023-07-22T13:05:08;3.92;;;3.40;;
27921;SDS011;15261;50.356;10.340;2023-07-22T13:10:42;4.35;;;3.88;;
27921;SDS011;15261;50.356;10.340;2023-07-22T13:13:10;4.45;;;4.05;;
27921;SDS011;15261;50.356;10.340;2023-07-22T13:15:35;5.03;;;4.15;;
27921;SDS011;15261;50.356;10.340;2023-07-22T13:18:01;10.45;;;9.38;;
27921;SDS011;15261;50.356;10.340;2023-07-22T13:20:27;14.90;;;8.25;;
27921;SDS011;15261;50.356;10.340;2023-07-22T13:22:53;4.03;;;3.72;;
27921;SDS011;15261;50.356;10.340;2023-07-22T13:25:19;4.65;;;3.78;;
27921;SDS011;15261;50.356;10.340;2023-07-22T13:27:44;5.88;;;3.50;;
27921;SDS011;15261;50.356;10.340;2023-07-22T13:30:26;5.53;;;3.40;;
27921;SDS011;15261;50.356;10.340;2023-07-22T13:33:04;3.38;;;3.17;;
27921;SDS011;15261;50.356;10.340;2023-07-22T13:35:39;3.58;;;3.30;;
27921;SDS011;15261;50.356;10.340;2023-07-22T13:38:15;7.80;;;3.65;;
27921;SDS011;15261;50.356;10.340;2023-07-22T13:40:40;3.63;;;3.17;;
27921;SDS011;15261;50.356;10.340;2023-07-22T13:43:06;5.40;;;3.45;;
27921;SDS011;15261;50.356;10.340;2023-07-22T13:45:32;3.72;;;3.42;;
27921;SDS011;15261;50.356;10.340;2023-07-22T13:51:16;4.35;;;3.40;;
27921;SDS011;15261;50.356;10.340;2023-07-22T13:59:18;4.45;;;3.45;;
27921;SDS011;15261;50.356;10.340;2023-07-22T14:01:48;7.55;;;3.50;;
27921;SDS011;15261;50.356;10.340;2023-07-22T14:04:13;4.03;;;3.63;;
27921;SDS011;15261;50.356;10.340;2023-07-22T14:06:39;3.90;;;3.58;;
27921;SDS011;15261;50.356;10.340;2023-07-22T14:09:04;5.22;;;3.50;;
27921;SDS011;15261;50.356;10.340;2023-07-22T14:11:30;4.57;;;3.70;;
27921;SDS011;15261;50.356;10.340;2023-07-22T14:13:55;4.05;;;3.55;;
27921;SDS011;15261;50.356;10.340;2023-07-22T14:16:21;3.83;;;3.47;;
27921;SDS011;15261;50.356;10.340;2023-07-22T14:18:46;4.78;;;3.40;;
27921;SDS011;15261;50.356;10.340;2023-07-22T14:21:13;3.70;;;3.40;;
27921;SDS011;15261;50.356;10.340;2023-07-22T14:23:38;3.92;;;3.42;;
27921;SDS011;15261;50.356;10.340;2023-07-22T14:26:04;5.20;;;3.53;;
27921;SDS011;15261;50.356;10.340;2023-07-22T14:28:29;3.75;;;3.13;;
27921;SDS011;15261;50.356;10.340;2023-07-22T14:30:55;4.68;;;3.20;;
27921;SDS011;15261;50.356;10.340;2023-07-22T14:33:20;3.70;;;3.40;;
27921;SDS011;15261;50.356;10.340;2023-07-22T14:35:46;7.38;;;3.58;;
27921;SDS011;15261;50.356;10.340;2023-07-22T14:38:28;4.85;;;3.53;;
27921;SDS011;15261;50.356;10.340;2023-07-22T14:41:05;3.80;;;3.20;;
27921;SDS011;15261;50.356;10.340;2023-07-22T14:43:31;6.22;;;3.20;;
27921;SDS011;15261;50.356;10.340;2023-07-22T14:45:56;4.93;;;3.10;;
27921;SDS011;15261;50.356;10.340;2023-07-22T14:48:22;3.70;;;3.17;;
27921;SDS011;15261;50.356;10.340;2023-07-22T14:50:47;8.57;;;3.38;;
27921;SDS011;15261;50.356;10.340;2023-07-22T14:53:13;6.32;;;3.60;;
27921;SDS011;15261;50.356;10.340;2023-07-22T14:55:39;8.45;;;3.78;;
27921;SDS011;15261;50.356;10.340;2023-07-22T14:58:04;5.55;;;3.20;;
27921;SDS011;15261;50.356;10.340;2023-07-22T15:00:30;10.48;;;3.75;;
27921;SDS011;15261;50.356;10.340;2023-07-22T15:02:55;8.30;;;3.40;;
27921;SDS011;15261;50.356;10.340;2023-07-22T15:05:21;9.18;;;3.53;;
27921;SDS011;15261;50.356;10.340;2023-07-22T15:07:46;6.30;;;3.45;;
27921;SDS011;15261;50.356;10.340;2023-07-22T15:10:15;44.17;;;4.82;;
27921;SDS011;15261;50.356;10.340;2023-07-22T15:12:55;12.70;;;3.83;;
27921;SDS011;15261;50.356;10.340;2023-07-22T15:15:20;4.85;;;3.50;;
27921;SDS011;15261;50.356;10.340;2023-07-22T15:17:46;5.43;;;3.22;;
27921;SDS011;15261;50.356;10.340;2023-07-22T15:20:13;7.00;;;3.60;;
27921;SDS011;15261;50.356;10.340;2023-07-22T15:22:38;4.72;;;2.80;;
27921;SDS011;15261;50.356;10.340;2023-07-22T15:25:04;3.53;;;3.22;;
27921;SDS011;15261;50.356;10.340;2023-07-22T15:27:34;12.65;;;3.90;;
27921;SDS011;15261;50.356;10.340;2023-07-22T15:30:00;9.20;;;3.38;;
27921;SDS011;15261;50.356;10.340;2023-07-22T15:32:25;8.38;;;3.95;;
27921;SDS011;15261;50.356;10.340;2023-07-22T15:37:55;10.88;;;3.35;;
27921;SDS011;15261;50.356;10.340;2023-07-22T15:40:21;7.47;;;3.35;;
27921;SDS011;15261;50.356;10.340;2023-07-22T15:42:46;3.80;;;3.40;;
27921;SDS011;15261;50.356;10.340;2023-07-22T15:45:12;5.90;;;3.30;;
27921;SDS011;15261;50.356;10.340;2023-07-22T15:47:37;5.05;;;3.28;;
27921;SDS011;15261;50.356;10.340;2023-07-22T15:50:03;3.75;;;3.25;;
27921;SDS011;15261;50.356;10.340;2023-07-22T15:52:30;6.00;;;3.30;;
27921;SDS011;15261;50.356;10.340;2023-07-22T15:57:59;4.07;;;3.28;;
27921;SDS011;15261;50.356;10.340;2023-07-22T16:00:39;3.53;;;3.20;;